sensor_id;sensor_type;location;lat;lon;timestamp;pressure;altitude;pressure_sealevel;temperature;humidity
64298;BME280;50639;53.270;7.956;2023-09-19T00:02:17;100323.41;;;16.12;80.03
64298;BME280;50639;53.270;7.956;2023-09-19T00:04:43;100321.47;;;16.04;80.14
64298;BME280;50639;53.270;7.956;2023-09-19T00:07:09;100326.03;;;16.02;80.35
64298;BME280;50639;53.270;7.956;2023-09-19T00:09:34;100326.72;;;16.04;80.12
64298;BME280;50639;53.270;7.956;2023-09-19T00:12:05;100332.34;;;16.09;79.48
64298;BME280;50639;53.270;7.956;2023-09-19T00:14:30;100344.59;;;16.09;79.31
64298;BME280;50639;53.270;7.956;2023-09-19T00:17:00;100339.19;;;16.10;78.64
64298;BME280;50639;53.270;7.956;2023-09-19T00:19:26;100344.72;;;16.17;78.69
64298;BME280;50639;53.270;7.956;2023-09-19T00:21:51;100343.34;;;16.13;78.62
64298;BME280;50639;53.270;7.956;2023-09-19T00:24:18;100352.56;;;16.07;78.61
64298;BME280;50639;53.270;7.956;2023-09-19T00:26:43;100345.81;;;16.05;78.67
64298;BME280;50639;53.270;7.956;2023-09-19T00:29:12;100339.25;;;15.91;78.87
64298;BME280;50639;53.270;7.956;2023-09-19T00:31:44;100343.09;;;15.87;79.42
64298;BME280;50639;53.270;7.956;2023-09-19T00:34:10;100351.47;;;15.81;79.68
64298;BME280;50639;53.270;7.956;2023-09-19T00:36:37;100353.78;;;15.74;79.96
64298;BME280;50639;53.270;7.956;2023-09-19T00:39:05;100357.38;;;15.64;80.47
64298;BME280;50639;53.270;7.956;2023-09-19T00:41:32;100360.25;;;15.61;80.59
64298;BME280;50639;53.270;7.956;2023-09-19T00:43:57;100362.69;;;15.53;80.85
64298;BME280;50639;53.270;7.956;2023-09-19T00:46:25;100365.16;;;15.44;81.21
64298;BME280;50639;53.270;7.956;2023-09-19T00:48:51;100364.72;;;15.49;81.19
64298;BME280;50639;53.270;7.956;2023-09-19T00:51:16;100370.41;;;15.54;81.23
64298;BME280;50639;53.270;7.956;2023-09-19T00:53:46;100371.41;;;15.63;80.96
64298;BME280;50639;53.270;7.956;2023-09-19T00:56:12;100375.09;;;15.70;80.56
64298;BME280;50639;53.270;7.956;2023-09-19T00:58:39;100377.16;;;15.76;80.23
64298;BME280;50639;53.270;7.956;2023-09-19T01:01:06;100386.78;;;15.75;80.22
64298;BME280;50639;53.270;7.956;2023-09-19T01:03:34;100384.59;;;15.80;79.96
64298;BME280;50639;53.270;7.956;2023-09-19T01:06:01;100382.00;;;15.80;79.63
64298;BME280;50639;53.270;7.956;2023-09-19T01:08:27;100382.94;;;15.79;79.64
64298;BME280;50639;53.270;7.956;2023-09-19T01:11:02;100393.13;;;15.73;79.72
64298;BME280;50639;53.270;7.956;2023-09-19T01:13:35;100395.44;;;15.66;80.26
64298;BME280;50639;53.270;7.956;2023-09-19T01:16:19;100392.13;;;15.55;81.03
64298;BME280;50639;53.270;7.956;2023-09-19T01:19:14;100398.25;;;15.44;81.22
64298;BME280;50639;53.270;7.956;2023-09-19T01:21:59;100400.13;;;15.32;81.53
64298;BME280;50639;53.270;7.956;2023-09-19T01:30:19;100406.41;;;15.11;81.60
64298;BME280;50639;53.270;7.956;2023-09-19T01:32:50;100409.13;;;15.09;81.33
64298;BME280;50639;53.270;7.956;2023-09-19T01:35:18;100409.66;;;15.03;81.40
64298;BME280;50639;53.270;7.956;2023-09-19T01:37:44;100421.56;;;14.96;81.38
64298;BME280;50639;53.270;7.956;2023-09-19T01:40:13;100420.44;;;14.89;81.06
64298;BME280;50639;53.270;7.956;2023-09-19T01:45:33;100413.50;;;14.78;81.01
64298;BME280;50639;53.270;7.956;2023-09-19T01:48:20;100424.22;;;14.75;80.92
64298;BME280;50639;53.270;7.956;2023-09-19T01:51:00;100420.59;;;14.66;81.25
64298;BME280;50639;53.270;7.956;2023-09-19T01:53:33;100424.28;;;14.64;81.15
64298;BME280;50639;53.270;7.956;2023-09-19T01:55:59;100423.25;;;14.55;81.55
64298;BME280;50639;53.270;7.956;2023-09-19T01:58:33;100417.34;;;14.53;81.15
64298;BME280;50639;53.270;7.956;2023-09-19T02:01:00;100419.25;;;14.51;80.88
64298;BME280;50639;53.270;7.956;2023-09-19T02:03:27;100429.25;;;14.46;80.81
64298;BME280;50639;53.270;7.956;2023-09-19T02:05:54;100433.25;;;14.50;80.72
64298;BME280;50639;53.270;7.956;2023-09-19T02:08:20;100433.63;;;14.46;80.69
64298;BME280;50639;53.270;7.956;2023-09-19T02:10:49;100429.75;;;14.40;80.49
64298;BME280;50639;53.270;7.956;2023-09-19T02:13:23;100431.88;;;14.35;80.62
64298;BME280;50639;53.270;7.956;2023-09-19T02:15:53;100434.47;;;14.35;80.19
64298;BME280;50639;53.270;7.956;2023-09-19T02:18:18;100433.63;;;14.35;79.99
64298;BME280;50639;53.270;7.956;2023-09-19T02:20:44;100443.50;;;14.31;79.85
64298;BME280;50639;53.270;7.956;2023-09-19T02:23:11;100455.00;;;14.28;79.95
64298;BME280;50639;53.270;7.956;2023-09-19T02:25:38;100446.34;;;14.28;80.09
64298;BME280;50639;53.270;7.956;2023-09-19T02:28:06;100452.91;;;14.22;80.07
64298;BME280;50639;53.270;7.956;2023-09-19T02:30:34;100446.53;;;14.15;80.26
64298;BME280;50639;53.270;7.956;2023-09-19T02:33:01;100458.47;;;14.18;79.95
64298;BME280;50639;53.270;7.956;2023-09-19T02:35:27;100465.31;;;14.19;80.28
64298;BME280;50639;53.270;7.956;2023-09-19T02:37:53;100459.56;;;14.15;80.03
64298;BME280;50639;53.270;7.956;2023-09-19T02:40:19;100454.34;;;14.15;80.13
64298;BME280;50639;53.270;7.956;2023-09-19T02:42:47;100448.09;;;14.07;80.49
64298;BME280;50639;53.270;7.956;2023-09-19T02:45:18;100456.16;;;14.04;80.48
64298;BME280;50639;53.270;7.956;2023-09-19T02:47:45;100449.53;;;14.00;80.73
64298;BME280;50639;53.270;7.956;2023-09-19T02:50:11;100443.88;;;13.94;80.83
64298;BME280;50639;53.270;7.956;2023-09-19T02:52:37;100454.06;;;13.98;81.18
64298;BME280;50639;53.270;7.956;2023-09-19T02:55:03;100450.84;;;13.94;81.15
64298;BME280;50639;53.270;7.956;2023-09-19T02:57:31;100463.28;;;13.90;81.64
64298;BME280;50639;53.270;7.956;2023-09-19T02:59:58;100466.63;;;13.81;82.13
64298;BME280;50639;53.270;7.956;2023-09-19T03:02:26;100457.66;;;13.74;82.11
64298;BME280;50639;53.270;7.956;2023-09-19T03:04:53;100462.38;;;13.80;82.47
64298;BME280;50639;53.270;7.956;2023-09-19T03:07:19;100460.38;;;13.73;82.88
64298;BME280;50639;53.270;7.956;2023-09-19T03:09:44;100465.84;;;13.70;83.35
64298;BME280;50639;53.270;7.956;2023-09-19T03:12:11;100472.09;;;13.67;83.48
64298;BME280;50639;53.270;7.956;2023-09-19T03:14:36;100468.09;;;13.63;83.37
64298;BME280;50639;53.270;7.956;2023-09-19T03:17:03;100465.72;;;13.60;83.81
64298;BME280;50639;53.270;7.956;2023-09-19T03:19:30;100467.84;;;13.55;84.04
64298;BME280;50639;53.270;7.956;2023-09-19T03:21:59;100477.56;;;13.53;84.85
64298;BME280;50639;53.270;7.956;2023-09-19T03:24:24;100485.00;;;13.46;85.24
64298;BME280;50639;53.270;7.956;2023-09-19T03:26:50;100480.28;;;13.51;85.30
64298;BME280;50639;53.270;7.956;2023-09-19T03:29:16;100476.75;;;13.52;85.47
64298;BME280;50639;53.270;7.956;2023-09-19T03:31:43;100472.59;;;13.50;85.63
64298;BME280;50639;53.270;7.956;2023-09-19T03:34:09;100478.13;;;13.56;85.24
64298;BME280;50639;53.270;7.956;2023-09-19T03:36:35;100482.50;;;13.56;85.78
64298;BME280;50639;53.270;7.956;2023-09-19T03:39:02;100484.28;;;13.55;85.57
64298;BME280;50639;53.270;7.956;2023-09-19T03:41:31;100485.84;;;13.58;85.25
64298;BME280;50639;53.270;7.956;2023-09-19T03:43:57;100483.34;;;13.56;85.40
64298;BME280;50639;53.270;7.956;2023-09-19T03:46:23;100483.22;;;13.58;85.58
64298;BME280;50639;53.270;7.956;2023-09-19T03:48:48;100482.50;;;13.56;85.77
64298;BME280;50639;53.270;7.956;2023-09-19T03:51:14;100491.16;;;13.56;85.12
64298;BME280;50639;53.270;7.956;2023-09-19T03:53:39;100486.66;;;13.59;85.06
64298;BME280;50639;53.270;7.956;2023-09-19T03:56:04;100478.75;;;13.60;85.30
64298;BME280;50639;53.270;7.956;2023-09-19T03:58:32;100481.84;;;13.54;85.19
64298;BME280;50639;53.270;7.956;2023-09-19T04:00:59;100476.47;;;13.55;85.24
64298;BME280;50639;53.270;7.956;2023-09-19T04:03:27;100483.00;;;13.61;84.85
64298;BME280;50639;53.270;7.956;2023-09-19T04:06:00;100482.88;;;13.63;84.74
64298;BME280;50639;53.270;7.956;2023-09-19T04:08:26;100481.13;;;13.63;84.40
64298;BME280;50639;53.270;7.956;2023-09-19T04:10:51;100476.97;;;13.61;84.22
64298;BME280;50639;53.270;7.956;2023-09-19T04:13:18;100491.88;;;13.59;84.55
64298;BME280;50639;53.270;7.956;2023-09-19T04:15:43;100493.88;;;13.55;84.39
64298;BME280;50639;53.270;7.956;2023-09-19T04:18:11;100487.97;;;13.53;84.49
64298;BME280;50639;53.270;7.956;2023-09-19T04:20:37;100491.75;;;13.49;84.35
64298;BME280;50639;53.270;7.956;2023-09-19T04:23:03;100495.66;;;13.43;84.17
64298;BME280;50639;53.270;7.956;2023-09-19T04:25:31;100500.88;;;13.43;84.06
64298;BME280;50639;53.270;7.956;2023-09-19T04:27:57;100509.50;;;13.44;84.34
64298;BME280;50639;53.270;7.956;2023-09-19T04:30:23;100501.81;;;13.42;83.81
64298;BME280;50639;53.270;7.956;2023-09-19T04:32:48;100497.44;;;13.43;84.11
64298;BME280;50639;53.270;7.956;2023-09-19T04:35:16;100500.88;;;13.43;83.53
64298;BME280;50639;53.270;7.956;2023-09-19T04:37:41;100500.75;;;13.45;83.53
64298;BME280;50639;53.270;7.956;2023-09-19T04:40:08;100507.13;;;13.41;83.92
64298;BME280;50639;53.270;7.956;2023-09-19T04:42:43;100498.38;;;13.42;83.61
64298;BME280;50639;53.270;7.956;2023-09-19T04:45:09;100516.72;;;13.40;83.09
64298;BME280;50639;53.270;7.956;2023-09-19T04:47:36;100510.09;;;13.36;82.82
64298;BME280;50639;53.270;7.956;2023-09-19T04:50:05;100525.22;;;13.42;82.87
64298;BME280;50639;53.270;7.956;2023-09-19T04:52:31;100520.59;;;13.46;82.81
64298;BME280;50639;53.270;7.956;2023-09-19T04:54:57;100534.94;;;13.51;82.93
64298;BME280;50639;53.270;7.956;2023-09-19T04:57:23;100544.13;;;13.55;82.56
64298;BME280;50639;53.270;7.956;2023-09-19T04:59:48;100538.22;;;13.65;81.98
64298;BME280;50639;53.270;7.956;2023-09-19T05:02:14;100537.38;;;13.64;81.99
64298;BME280;50639;53.270;7.956;2023-09-19T05:04:39;100534.44;;;13.57;82.21
64298;BME280;50639;53.270;7.956;2023-09-19T05:07:05;100517.06;;;13.58;82.38
64298;BME280;50639;53.270;7.956;2023-09-19T05:09:30;100523.22;;;13.57;82.42
64298;BME280;50639;53.270;7.956;2023-09-19T05:11:56;100527.00;;;13.53;82.36
64298;BME280;50639;53.270;7.956;2023-09-19T05:14:22;100524.53;;;13.51;82.40
64298;BME280;50639;53.270;7.956;2023-09-19T05:16:48;100531.59;;;13.49;82.16
64298;BME280;50639;53.270;7.956;2023-09-19T05:19:13;100533.16;;;13.52;82.63
64298;BME280;50639;53.270;7.956;2023-09-19T05:21:39;100537.53;;;13.51;82.02
64298;BME280;50639;53.270;7.956;2023-09-19T05:24:07;100532.22;;;13.53;82.11
64298;BME280;50639;53.270;7.956;2023-09-19T05:26:32;100537.41;;;13.53;82.16
64298;BME280;50639;53.270;7.956;2023-09-19T05:28:58;100536.22;;;13.57;82.46
64298;BME280;50639;53.270;7.956;2023-09-19T05:31:23;100538.59;;;13.60;82.39
64298;BME280;50639;53.270;7.956;2023-09-19T05:33:50;100537.38;;;13.64;82.23
64298;BME280;50639;53.270;7.956;2023-09-19T05:36:16;100540.81;;;13.65;82.12
64298;BME280;50639;53.270;7.956;2023-09-19T05:38:42;100547.56;;;13.67;81.76
64298;BME280;50639;53.270;7.956;2023-09-19T05:41:09;100557.88;;;13.80;81.61
64298;BME280;50639;53.270;7.956;2023-09-19T05:43:39;100553.00;;;13.86;81.94
64298;BME280;50639;53.270;7.956;2023-09-19T05:46:06;100554.19;;;13.82;81.86
64298;BME280;50639;53.270;7.956;2023-09-19T05:48:33;100560.81;;;13.86;81.48
64298;BME280;50639;53.270;7.956;2023-09-19T05:50:58;100565.31;;;13.96;81.37
64298;BME280;50639;53.270;7.956;2023-09-19T05:53:24;100558.91;;;14.00;81.29
64298;BME280;50639;53.270;7.956;2023-09-19T05:55:49;100561.88;;;14.06;81.49
64298;BME280;50639;53.270;7.956;2023-09-19T05:58:15;100559.59;;;14.02;81.98
64298;BME280;50639;53.270;7.956;2023-09-19T06:00:42;100555.34;;;14.01;82.92
64298;BME280;50639;53.270;7.956;2023-09-19T06:03:10;100552.78;;;13.89;83.48
64298;BME280;50639;53.270;7.956;2023-09-19T06:05:37;100557.63;;;13.94;83.44
64298;BME280;50639;53.270;7.956;2023-09-19T06:08:06;100566.13;;;13.96;83.67
64298;BME280;50639;53.270;7.956;2023-09-19T06:10:35;100560.34;;;13.92;83.54
64298;BME280;50639;53.270;7.956;2023-09-19T06:13:04;100548.63;;;13.98;83.45
64298;BME280;50639;53.270;7.956;2023-09-19T06:15:30;100553.00;;;13.98;83.50
64298;BME280;50639;53.270;7.956;2023-09-19T06:17:58;100557.13;;;14.00;83.64
64298;BME280;50639;53.270;7.956;2023-09-19T06:20:25;100562.59;;;13.97;83.74
64298;BME280;50639;53.270;7.956;2023-09-19T06:22:52;100566.97;;;13.97;83.21
64298;BME280;50639;53.270;7.956;2023-09-19T06:25:17;100566.72;;;14.00;83.71
64298;BME280;50639;53.270;7.956;2023-09-19T06:27:49;100560.81;;;13.98;83.81
64298;BME280;50639;53.270;7.956;2023-09-19T06:30:17;100564.00;;;14.01;83.57
64298;BME280;50639;53.270;7.956;2023-09-19T06:32:43;100568.03;;;14.05;83.92
64298;BME280;50639;53.270;7.956;2023-09-19T06:35:13;100578.44;;;14.05;83.33
64298;BME280;50639;53.270;7.956;2023-09-19T06:37:40;100579.38;;;14.04;83.84
64298;BME280;50639;53.270;7.956;2023-09-19T06:40:10;100597.00;;;14.12;83.24
64298;BME280;50639;53.270;7.956;2023-09-19T06:42:47;100594.63;;;14.20;83.14
64298;BME280;50639;53.270;7.956;2023-09-19T06:45:15;100582.53;;;14.19;82.54
64298;BME280;50639;53.270;7.956;2023-09-19T06:47:44;100591.06;;;14.32;82.28
64298;BME280;50639;53.270;7.956;2023-09-19T06:50:11;100584.66;;;14.25;82.08
64298;BME280;50639;53.270;7.956;2023-09-19T06:52:42;100594.94;;;14.38;81.66
64298;BME280;50639;53.270;7.956;2023-09-19T06:55:08;100603.59;;;14.38;81.11
64298;BME280;50639;53.270;7.956;2023-09-19T06:57:39;100606.44;;;14.46;81.00
64298;BME280;50639;53.270;7.956;2023-09-19T07:00:06;100620.63;;;14.53;80.37
64298;BME280;50639;53.270;7.956;2023-09-19T07:03:00;100611.16;;;14.52;79.87
64298;BME280;50639;53.270;7.956;2023-09-19T07:05:27;100600.50;;;14.55;79.03
64298;BME280;50639;53.270;7.956;2023-09-19T07:07:53;100617.28;;;14.62;78.96
64298;BME280;50639;53.270;7.956;2023-09-19T07:10:20;100611.84;;;14.65;78.21
64298;BME280;50639;53.270;7.956;2023-09-19T07:13:03;100606.38;;;14.68;77.75
64298;BME280;50639;53.270;7.956;2023-09-19T07:15:32;100606.59;;;14.77;77.24
64298;BME280;50639;53.270;7.956;2023-09-19T07:18:01;100610.72;;;14.79;77.05
64298;BME280;50639;53.270;7.956;2023-09-19T07:20:26;100606.91;;;14.83;77.21
64298;BME280;50639;53.270;7.956;2023-09-19T07:22:52;100607.47;;;14.87;77.42
64298;BME280;50639;53.270;7.956;2023-09-19T07:25:20;100610.09;;;14.87;77.21
64298;BME280;50639;53.270;7.956;2023-09-19T07:27:45;100599.09;;;14.83;76.95
64298;BME280;50639;53.270;7.956;2023-09-19T07:30:11;100610.44;;;14.93;75.75
64298;BME280;50639;53.270;7.956;2023-09-19T07:32:37;100603.16;;;14.97;75.11
64298;BME280;50639;53.270;7.956;2023-09-19T07:35:04;100614.75;;;15.04;75.44
64298;BME280;50639;53.270;7.956;2023-09-19T07:37:31;100608.34;;;15.08;74.72
64298;BME280;50639;53.270;7.956;2023-09-19T07:39:58;100613.13;;;15.03;74.64
64298;BME280;50639;53.270;7.956;2023-09-19T07:42:24;100609.03;;;15.10;74.84
64298;BME280;50639;53.270;7.956;2023-09-19T07:44:49;100617.78;;;15.20;73.94
64298;BME280;50639;53.270;7.956;2023-09-19T07:47:16;100616.41;;;15.26;74.19
64298;BME280;50639;53.270;7.956;2023-09-19T07:49:42;100614.88;;;15.23;73.37
64298;BME280;50639;53.270;7.956;2023-09-19T07:52:08;100616.19;;;15.29;73.57
64298;BME280;50639;53.270;7.956;2023-09-19T07:54:35;100614.06;;;15.43;72.94
64298;BME280;50639;53.270;7.956;2023-09-19T07:57:01;100621.06;;;15.43;72.68
64298;BME280;50639;53.270;7.956;2023-09-19T07:59:27;100620.53;;;15.49;72.88
64298;BME280;50639;53.270;7.956;2023-09-19T08:01:53;100612.66;;;15.60;72.39
64298;BME280;50639;53.270;7.956;2023-09-19T08:04:18;100615.84;;;15.64;71.94
64298;BME280;50639;53.270;7.956;2023-09-19T08:06:44;100612.13;;;15.66;71.54
64298;BME280;50639;53.270;7.956;2023-09-19T08:09:10;100610.69;;;15.73;71.40
64298;BME280;50639;53.270;7.956;2023-09-19T08:11:37;100617.16;;;15.79;71.42
64298;BME280;50639;53.270;7.956;2023-09-19T08:14:02;100623.38;;;15.88;70.66
64298;BME280;50639;53.270;7.956;2023-09-19T08:16:28;100615.28;;;15.91;70.37
64298;BME280;50639;53.270;7.956;2023-09-19T08:18:53;100607.50;;;16.00;69.66
64298;BME280;50639;53.270;7.956;2023-09-19T08:21:21;100613.66;;;15.99;69.50
64298;BME280;50639;53.270;7.956;2023-09-19T08:23:47;100615.19;;;16.11;69.98
64298;BME280;50639;53.270;7.956;2023-09-19T08:26:12;100621.03;;;16.25;69.91
64298;BME280;50639;53.270;7.956;2023-09-19T08:28:38;100618.00;;;16.29;68.93
64298;BME280;50639;53.270;7.956;2023-09-19T08:31:07;100615.25;;;16.31;68.75
64298;BME280;50639;53.270;7.956;2023-09-19T08:33:34;100609.19;;;16.21;67.96
64298;BME280;50639;53.270;7.956;2023-09-19T08:36:02;100619.66;;;16.30;67.94
64298;BME280;50639;53.270;7.956;2023-09-19T08:38:30;100621.06;;;16.34;68.66
64298;BME280;50639;53.270;7.956;2023-09-19T08:41:00;100619.44;;;16.43;68.29
64298;BME280;50639;53.270;7.956;2023-09-19T08:43:26;100622.16;;;16.41;68.31
64298;BME280;50639;53.270;7.956;2023-09-19T08:45:58;100619.94;;;16.37;68.25
64298;BME280;50639;53.270;7.956;2023-09-19T08:48:29;100624.66;;;16.43;67.70
64298;BME280;50639;53.270;7.956;2023-09-19T08:50:56;100630.13;;;16.40;67.34
64298;BME280;50639;53.270;7.956;2023-09-19T08:56:09;100634.13;;;16.53;67.63
64298;BME280;50639;53.270;7.956;2023-09-19T08:59:05;100632.78;;;16.59;66.16
64298;BME280;50639;53.270;7.956;2023-09-19T09:01:33;100621.69;;;16.67;66.27
64298;BME280;50639;53.270;7.956;2023-09-19T09:03:59;100630.34;;;16.67;67.35
64298;BME280;50639;53.270;7.956;2023-09-19T09:06:26;100631.88;;;16.79;67.80
64298;BME280;50639;53.270;7.956;2023-09-19T09:08:53;100640.97;;;16.85;66.55
64298;BME280;50639;53.270;7.956;2023-09-19T09:11:20;100641.09;;;16.74;67.06
64298;BME280;50639;53.270;7.956;2023-09-19T09:13:47;100635.88;;;16.83;67.32
64298;BME280;50639;53.270;7.956;2023-09-19T09:16:13;100643.16;;;16.99;66.74
64298;BME280;50639;53.270;7.956;2023-09-19T09:18:40;100656.13;;;17.01;66.14
64298;BME280;50639;53.270;7.956;2023-09-19T09:21:06;100652.13;;;16.97;65.72
64298;BME280;50639;53.270;7.956;2023-09-19T09:23:32;100649.22;;;16.90;65.42
64298;BME280;50639;53.270;7.956;2023-09-19T09:25:58;100644.41;;;17.05;65.33
64298;BME280;50639;53.270;7.956;2023-09-19T09:28:30;100643.03;;;16.91;65.52
64298;BME280;50639;53.270;7.956;2023-09-19T09:30:57;100656.13;;;17.01;66.50
64298;BME280;50639;53.270;7.956;2023-09-19T09:33:28;100642.91;;;17.12;66.36
64298;BME280;50639;53.270;7.956;2023-09-19T09:35:55;100641.94;;;17.22;65.13
64298;BME280;50639;53.270;7.956;2023-09-19T09:38:23;100642.19;;;17.29;64.67
64298;BME280;50639;53.270;7.956;2023-09-19T09:40:54;100639.81;;;17.36;65.32
64298;BME280;50639;53.270;7.956;2023-09-19T09:43:38;100642.03;;;17.40;64.50
64298;BME280;50639;53.270;7.956;2023-09-19T09:46:16;100662.88;;;17.13;64.39
64298;BME280;50639;53.270;7.956;2023-09-19T09:48:56;100659.13;;;17.15;64.98
64298;BME280;50639;53.270;7.956;2023-09-19T09:51:58;100648.53;;;17.07;65.43
64298;BME280;50639;53.270;7.956;2023-09-19T09:54:26;100670.72;;;16.93;65.96
64298;BME280;50639;53.270;7.956;2023-09-19T09:57:08;100660.66;;;17.08;66.30
64298;BME280;50639;53.270;7.956;2023-09-19T09:59:52;100646.59;;;17.19;66.55
64298;BME280;50639;53.270;7.956;2023-09-19T10:02:20;100647.41;;;17.39;66.09
64298;BME280;50639;53.270;7.956;2023-09-19T10:04:50;100654.00;;;17.43;65.21
64298;BME280;50639;53.270;7.956;2023-09-19T10:07:55;100651.38;;;17.43;64.59
64298;BME280;50639;53.270;7.956;2023-09-19T10:10:38;100657.59;;;17.42;64.84
64298;BME280;50639;53.270;7.956;2023-09-19T10:13:25;100641.31;;;17.57;64.97
64298;BME280;50639;53.270;7.956;2023-09-19T10:15:54;100653.84;;;17.73;63.86
64298;BME280;50639;53.270;7.956;2023-09-19T10:18:26;100656.59;;;17.72;63.77
64298;BME280;50639;53.270;7.956;2023-09-19T10:20:53;100654.56;;;17.65;63.15
64298;BME280;50639;53.270;7.956;2023-09-19T10:23:21;100644.44;;;17.61;63.25
64298;BME280;50639;53.270;7.956;2023-09-19T10:25:52;100646.47;;;17.86;63.29
64298;BME280;50639;53.270;7.956;2023-09-19T10:28:18;100645.72;;;18.03;63.48
64298;BME280;50639;53.270;7.956;2023-09-19T10:30:48;100641.47;;;18.02;62.92
64298;BME280;50639;53.270;7.956;2023-09-19T10:33:17;100643.44;;;18.18;62.49
64298;BME280;50639;53.270;7.956;2023-09-19T10:35:46;100637.53;;;18.16;61.78
64298;BME280;50639;53.270;7.956;2023-09-19T10:38:13;100649.25;;;18.39;61.85
64298;BME280;50639;53.270;7.956;2023-09-19T10:40:40;100641.97;;;18.33;61.16
64298;BME280;50639;53.270;7.956;2023-09-19T10:43:12;100640.56;;;18.39;61.19
64298;BME280;50639;53.270;7.956;2023-09-19T10:45:38;100630.69;;;18.51;61.97
64298;BME280;50639;53.270;7.956;2023-09-19T10:48:05;100642.13;;;18.59;60.42
64298;BME280;50639;53.270;7.956;2023-09-19T10:50:36;100620.50;;;18.48;58.02
64298;BME280;50639;53.270;7.956;2023-09-19T10:53:07;100627.53;;;18.47;59.29
64298;BME280;50639;53.270;7.956;2023-09-19T10:55:36;100618.94;;;18.55;58.73
64298;BME280;50639;53.270;7.956;2023-09-19T10:58:03;100632.47;;;18.60;59.40
64298;BME280;50639;53.270;7.956;2023-09-19T11:00:58;100621.28;;;18.58;58.36
64298;BME280;50639;53.270;7.956;2023-09-19T11:03:41;100637.19;;;18.74;58.58
64298;BME280;50639;53.270;7.956;2023-09-19T11:06:14;100638.31;;;18.89;58.09
64298;BME280;50639;53.270;7.956;2023-09-19T11:08:59;100634.94;;;18.97;58.90
64298;BME280;50639;53.270;7.956;2023-09-19T11:11:43;100620.81;;;19.15;57.72
64298;BME280;50639;53.270;7.956;2023-09-19T11:30:49;100618.50;;;18.95;57.31
64298;BME280;50639;53.270;7.956;2023-09-19T11:33:28;100623.69;;;19.04;57.39
64298;BME280;50639;53.270;7.956;2023-09-19T11:46:26;100608.28;;;19.53;54.94
64298;BME280;50639;53.270;7.956;2023-09-19T11:48:53;100605.38;;;19.38;56.24
64298;BME280;50639;53.270;7.956;2023-09-19T11:51:23;100595.34;;;19.34;56.94
64298;BME280;50639;53.270;7.956;2023-09-19T11:53:53;100609.31;;;19.34;55.14
64298;BME280;50639;53.270;7.956;2023-09-19T11:56:20;100585.78;;;19.25;54.15
64298;BME280;50639;53.270;7.956;2023-09-19T11:58:52;100591.03;;;19.25;54.24
64298;BME280;50639;53.270;7.956;2023-09-19T12:01:31;100599.22;;;19.47;55.31
64298;BME280;50639;53.270;7.956;2023-09-19T12:03:59;100602.97;;;19.71;54.56
64298;BME280;50639;53.270;7.956;2023-09-19T12:06:26;100605.72;;;19.61;54.65
64298;BME280;50639;53.270;7.956;2023-09-19T12:08:52;100584.34;;;19.56;54.22
64298;BME280;50639;53.270;7.956;2023-09-19T12:11:23;100592.25;;;19.64;53.86
64298;BME280;50639;53.270;7.956;2023-09-19T12:13:49;100586.69;;;19.67;54.46
64298;BME280;50639;53.270;7.956;2023-09-19T12:16:19;100588.13;;;19.62;53.98
64298;BME280;50639;53.270;7.956;2023-09-19T12:18:47;100582.75;;;19.71;54.35
64298;BME280;50639;53.270;7.956;2023-09-19T12:21:31;100576.06;;;19.77;54.68
64298;BME280;50639;53.270;7.956;2023-09-19T12:23:59;100574.56;;;19.74;55.35
64298;BME280;50639;53.270;7.956;2023-09-19T12:26:26;100575.50;;;19.65;55.03
64298;BME280;50639;53.270;7.956;2023-09-19T12:28:54;100568.94;;;19.61;54.63
64298;BME280;50639;53.270;7.956;2023-09-19T12:31:21;100569.13;;;19.68;55.77
64298;BME280;50639;53.270;7.956;2023-09-19T12:33:53;100567.03;;;19.79;54.68
64298;BME280;50639;53.270;7.956;2023-09-19T12:36:25;100549.53;;;19.96;55.37
64298;BME280;50639;53.270;7.956;2023-09-19T12:38:58;100538.53;;;20.09;55.79
64298;BME280;50639;53.270;7.956;2023-09-19T12:41:25;100523.88;;;19.90;54.11
64298;BME280;50639;53.270;7.956;2023-09-19T12:43:54;100535.34;;;19.89;54.23
64298;BME280;50639;53.270;7.956;2023-09-19T12:46:23;100527.00;;;19.85;53.82
64298;BME280;50639;53.270;7.956;2023-09-19T12:49:15;100529.28;;;19.88;53.58
64298;BME280;50639;53.270;7.956;2023-09-19T12:51:42;100530.47;;;19.94;54.35
64298;BME280;50639;53.270;7.956;2023-09-19T12:54:09;100534.91;;;19.94;53.92
64298;BME280;50639;53.270;7.956;2023-09-19T12:56:40;100527.41;;;19.73;54.24
64298;BME280;50639;53.270;7.956;2023-09-19T12:59:12;100533.50;;;19.73;54.83
64298;BME280;50639;53.270;7.956;2023-09-19T13:01:40;100539.19;;;19.52;55.00
64298;BME280;50639;53.270;7.956;2023-09-19T13:04:17;100538.38;;;19.60;54.91
64298;BME280;50639;53.270;7.956;2023-09-19T13:06:46;100531.59;;;19.49;55.72
64298;BME280;50639;53.270;7.956;2023-09-19T13:09:14;100521.28;;;19.56;55.45
64298;BME280;50639;53.270;7.956;2023-09-19T13:11:40;100522.19;;;19.47;56.19
64298;BME280;50639;53.270;7.956;2023-09-19T13:17:06;100529.22;;;19.38;55.29
64298;BME280;50639;53.270;7.956;2023-09-19T13:19:45;100532.91;;;19.28;55.54
64298;BME280;50639;53.270;7.956;2023-09-19T13:22:36;100516.34;;;19.27;56.02
64298;BME280;50639;53.270;7.956;2023-09-19T13:25:05;100514.97;;;19.15;55.81
64298;BME280;50639;53.270;7.956;2023-09-19T13:27:32;100518.91;;;19.19;56.24
64298;BME280;50639;53.270;7.956;2023-09-19T13:29:58;100516.78;;;19.14;56.73
64298;BME280;50639;53.270;7.956;2023-09-19T13:32:23;100517.03;;;19.03;56.71
64298;BME280;50639;53.270;7.956;2023-09-19T13:34:49;100497.97;;;19.01;57.44
64298;BME280;50639;53.270;7.956;2023-09-19T13:37:16;100504.81;;;19.20;56.08
64298;BME280;50639;53.270;7.956;2023-09-19T13:39:43;100506.63;;;19.20;56.26
64298;BME280;50639;53.270;7.956;2023-09-19T13:42:13;100505.28;;;19.15;55.74